createdAt,value
2022-12-31T00:01:50.203Z,102142.91
2022-12-31T00:05:52.616Z,102147.34
2022-12-31T00:09:51.497Z,102147.09
2022-12-31T00:13:52.496Z,102155.28
2022-12-31T00:17:51.439Z,102152.09
2022-12-31T00:21:52.899Z,102164.78
2022-12-31T00:25:51.679Z,102167.22
2022-12-31T00:29:51.101Z,102161.66
2022-12-31T00:33:51.018Z,102165.03
2022-12-31T00:37:53.045Z,102164.34
2022-12-31T00:41:52.424Z,102164.16
2022-12-31T00:45:51.946Z,102176.38
2022-12-31T00:49:51.309Z,102192.47
2022-12-31T00:53:52.723Z,102191.91
2022-12-31T00:57:51.541Z,102212.72
2022-12-31T01:01:51.478Z,102203.31
2022-12-31T01:05:50.434Z,102205.97
2022-12-31T01:09:53.454Z,102201.44
2022-12-31T01:13:53.838Z,102206.22
2022-12-31T01:17:53.210Z,102205.06
2022-12-31T01:21:52.701Z,102203.75
2022-12-31T01:25:53.631Z,102212.03
2022-12-31T01:29:52.964Z,102208.19
2022-12-31T01:33:52.606Z,102203.94
2022-12-31T01:37:52.070Z,102205.41
2022-12-31T01:41:52.942Z,102198.75
2022-12-31T01:45:54.551Z,102207.25
2022-12-31T01:49:55.404Z,102210.84
2022-12-31T01:53:54.958Z,102210.94
2022-12-31T01:57:59.688Z,102216.75
2022-12-31T02:01:59.228Z,102211.38
2022-12-31T02:06:01.602Z,102208.78
2022-12-31T02:10:00.755Z,102221.03
2022-12-31T02:14:04.296Z,102216.78
2022-12-31T02:18:07.909Z,102211.66
2022-12-31T02:22:11.569Z,102209.31
2022-12-31T02:26:31.887Z,102213.56
2022-12-31T02:30:34.107Z,102207.53
2022-12-31T02:34:34.594Z,102214.47
2022-12-31T02:38:35.533Z,102207.69
2022-12-31T02:42:34.813Z,102206.63
2022-12-31T02:46:42.233Z,102205.16
2022-12-31T02:50:55.098Z,102199.22
2022-12-31T02:55:00.289Z,102217.44
2022-12-31T02:59:19.894Z,102226.41
2022-12-31T03:03:22.240Z,102223.38
2022-12-31T03:07:23.528Z,102225.88
2022-12-31T03:11:35.592Z,102227.25
2022-12-31T03:15:35.476Z,102233.94
2022-12-31T03:19:59.529Z,102237.22
2022-12-31T03:24:15.132Z,102237.84
2022-12-31T03:28:15.532Z,102235.63
2022-12-31T03:32:15.235Z,102244.94
2022-12-31T03:36:16.848Z,102234.22
2022-12-31T03:40:16.806Z,102237.94
2022-12-31T03:44:16.113Z,102237.03
2022-12-31T03:48:15.457Z,102238.69
2022-12-31T03:52:16.436Z,102245.47
2022-12-31T03:56:15.834Z,102242.53
2022-12-31T04:00:17.147Z,102253.66
2022-12-31T04:04:16.443Z,102249.34
2022-12-31T04:08:17.921Z,102243.22
2022-12-31T04:12:17.372Z,102246.88
2022-12-31T04:16:16.749Z,102245.81
2022-12-31T04:20:16.470Z,102241.78
2022-12-31T04:24:18.779Z,102248.41
2022-12-31T04:28:18.128Z,102249.31
2022-12-31T04:32:17.653Z,102254.75
2022-12-31T04:36:17.058Z,102257.88
2022-12-31T04:40:18.663Z,102260.44
2022-12-31T04:44:18.228Z,102264.69
2022-12-31T04:48:17.493Z,102266.75
2022-12-31T04:52:16.348Z,102262.72
2022-12-31T04:56:17.911Z,102266.50
2022-12-31T05:00:17.470Z,102270.84
2022-12-31T05:04:16.774Z,102274.66
2022-12-31T05:08:16.140Z,102281.16
2022-12-31T05:12:17.649Z,102284.00
2022-12-31T05:16:17.096Z,102284.91
2022-12-31T05:20:16.452Z,102285.50
2022-12-31T05:24:15.812Z,102298.00
2022-12-31T05:28:17.443Z,102301.88
2022-12-31T05:32:16.776Z,102314.38
2022-12-31T05:36:16.671Z,102318.97
2022-12-31T05:40:16.082Z,102329.75
2022-12-31T05:44:17.152Z,102324.75
2022-12-31T05:48:16.530Z,102328.75
2022-12-31T05:52:16.059Z,102331.34
2022-12-31T05:56:16.197Z,102334.69
2022-12-31T06:00:18.472Z,102332.56
2022-12-31T06:04:18.944Z,102353.06
2022-12-31T06:08:17.845Z,102356.09
2022-12-31T06:12:17.201Z,102356.31
2022-12-31T06:16:18.672Z,102362.84
2022-12-31T06:20:18.105Z,102375.97
2022-12-31T06:24:19.013Z,102377.63
2022-12-31T06:28:20.566Z,102380.28
2022-12-31T06:32:22.320Z,102375.69
2022-12-31T06:36:22.043Z,102384.44
2022-12-31T06:40:21.583Z,102391.31
2022-12-31T06:44:22.753Z,102401.56
2022-12-31T06:48:26.093Z,102400.22
2022-12-31T06:52:34.389Z,102414.22
2022-12-31T06:56:35.081Z,102411.97
2022-12-31T07:00:34.732Z,102420.22
2022-12-31T07:04:46.254Z,102420.47
2022-12-31T07:08:51.667Z,102422.16
2022-12-31T07:13:06.629Z,102437.56
2022-12-31T07:17:13.301Z,102436.22
2022-12-31T07:21:16.761Z,102447.13
2022-12-31T07:25:19.168Z,102449.44
2022-12-31T07:29:23.428Z,102458.22
2022-12-31T07:33:37.036Z,102448.16
2022-12-31T07:37:44.987Z,102447.50
2022-12-31T07:41:49.514Z,102448.09
2022-12-31T07:45:52.252Z,102455.84
2022-12-31T07:49:52.361Z,102457.22
2022-12-31T07:53:54.056Z,102459.75
2022-12-31T07:57:57.604Z,102461.09
2022-12-31T08:01:59.850Z,102468.69
2022-12-31T08:06:05.234Z,102464.41
2022-12-31T08:10:15.694Z,102469.28
2022-12-31T08:14:17.258Z,102462.56
2022-12-31T08:18:17.411Z,102473.53
2022-12-31T08:22:41.145Z,102475.53
2022-12-31T08:26:53.213Z,102471.53
2022-12-31T08:30:56.742Z,102482.41
2022-12-31T08:35:00.917Z,102481.75
2022-12-31T08:39:03.457Z,102481.13
2022-12-31T08:43:16.379Z,102481.75
2022-12-31T08:47:23.628Z,102455.44
2022-12-31T08:51:25.111Z,102480.31
2022-12-31T08:55:24.830Z,102474.19
2022-12-31T08:59:38.435Z,102463.03
2022-12-31T09:03:44.831Z,102459.09
2022-12-31T09:07:49.719Z,102453.97
2022-12-31T09:11:54.575Z,102450.50
2022-12-31T09:16:00.829Z,102447.69
2022-12-31T09:20:00.895Z,102436.94
2022-12-31T09:24:05.942Z,102440.69
2022-12-31T09:28:13.569Z,102425.66
2022-12-31T09:32:28.726Z,102428.09
2022-12-31T09:36:50.582Z,102427.81
2022-12-31T09:41:07.313Z,102427.25
2022-12-31T09:45:21.592Z,102414.44
2022-12-31T09:49:40.286Z,102409.50
2022-12-31T09:53:58.351Z,102397.34
2022-12-31T09:58:11.596Z,102395.31
2022-12-31T10:02:18.865Z,102403.16
2022-12-31T10:06:23.568Z,102392.81
2022-12-31T10:10:25.721Z,102394.13
2022-12-31T10:14:32.688Z,102395.06
2022-12-31T10:18:48.701Z,102388.16
2022-12-31T10:23:01.488Z,102385.28
2022-12-31T10:27:16.139Z,102382.38
2022-12-31T10:31:33.859Z,102382.22
2022-12-31T10:35:38.072Z,102378.81
2022-12-31T10:39:45.880Z,102377.31
2022-12-31T10:44:02.163Z,102371.41
2022-12-31T10:48:16.279Z,102370.22
2022-12-31T10:52:28.108Z,102370.38
2022-12-31T10:56:54.270Z,102370.63
2022-12-31T11:01:00.713Z,102367.28
2022-12-31T11:05:21.247Z,102363.06
2022-12-31T11:09:45.571Z,102348.97
2022-12-31T11:14:05.763Z,102349.78
2022-12-31T11:18:15.090Z,102343.13
2022-12-31T11:22:25.887Z,102332.06
2022-12-31T11:26:31.535Z,102344.97
2022-12-31T11:30:34.754Z,102342.00
2022-12-31T11:34:47.703Z,102335.81
2022-12-31T11:38:52.864Z,102335.97
2022-12-31T11:42:58.308Z,102329.91
2022-12-31T11:47:05.057Z,102324.09
2022-12-31T11:51:17.976Z,102323.56
2022-12-31T11:55:25.035Z,102328.72
2022-12-31T11:59:25.060Z,102319.84
2022-12-31T12:03:25.110Z,102323.31
2022-12-31T12:07:27.414Z,102327.19
2022-12-31T12:11:27.983Z,102319.34
2022-12-31T12:15:29.405Z,102320.44
2022-12-31T12:19:29.198Z,102322.44
2022-12-31T12:23:32.464Z,102315.13
2022-12-31T12:27:32.785Z,102318.69
2022-12-31T12:31:33.937Z,102329.31
2022-12-31T12:35:35.600Z,102341.91
2022-12-31T12:39:40.503Z,102342.69
2022-12-31T12:43:41.767Z,102338.75
2022-12-31T12:47:43.131Z,102352.03
2022-12-31T12:51:48.187Z,102351.94
2022-12-31T12:55:56.230Z,102353.94
2022-12-31T13:00:04.954Z,102353.13
2022-12-31T13:04:35.287Z,102358.78
2022-12-31T13:08:56.795Z,102364.13
2022-12-31T13:13:25.400Z,102363.84
2022-12-31T13:17:49.801Z,102371.84
2022-12-31T13:22:04.712Z,102372.34
2022-12-31T13:26:11.088Z,102372.41
2022-12-31T13:31:19.039Z,102372.41
2022-12-31T13:35:26.525Z,102375.03
2022-12-31T13:39:29.560Z,102377.94
2022-12-31T13:43:35.034Z,102381.31
2022-12-31T13:47:39.298Z,102391.81
2022-12-31T13:51:43.239Z,102384.88
2022-12-31T13:55:43.740Z,102385.78
2022-12-31T13:59:46.410Z,102398.81
2022-12-31T14:03:54.240Z,102390.63
2022-12-31T14:07:55.947Z,102382.56
2022-12-31T14:12:25.939Z,102383.22
2022-12-31T14:16:50.673Z,102390.97
2022-12-31T14:21:02.654Z,102384.91
2022-12-31T14:25:03.109Z,102381.13
2022-12-31T14:29:07.030Z,102386.00
2022-12-31T14:33:20.557Z,102384.03
2022-12-31T14:37:29.305Z,102380.25
2022-12-31T14:41:42.130Z,102374.06
2022-12-31T14:45:48.261Z,102371.38
2022-12-31T14:49:55.582Z,102372.31
2022-12-31T14:53:57.444Z,102374.81
2022-12-31T14:58:27.125Z,102369.38
2022-12-31T15:02:28.903Z,102372.69
2022-12-31T15:06:36.365Z,102385.03
2022-12-31T15:10:43.490Z,102392.72
2022-12-31T15:14:58.919Z,102404.00
2022-12-31T15:19:11.548Z,102399.34
2022-12-31T15:23:25.735Z,102412.41
2022-12-31T15:27:33.262Z,102416.59
2022-12-31T15:31:34.338Z,102427.75
2022-12-31T15:35:47.892Z,102431.31
2022-12-31T15:39:46.938Z,102429.50
2022-12-31T15:43:50.474Z,102431.97
2022-12-31T15:47:56.939Z,102418.69
2022-12-31T15:52:01.694Z,102429.66
2022-12-31T15:56:02.109Z,102432.75
2022-12-31T16:00:06.739Z,102434.81
2022-12-31T16:04:09.587Z,102431.09
2022-12-31T16:08:19.343Z,102433.06
2022-12-31T16:12:21.853Z,102429.59
2022-12-31T16:16:25.455Z,102423.59
2022-12-31T16:20:26.399Z,102427.03
2022-12-31T16:24:29.176Z,102419.22
2022-12-31T16:28:30.559Z,102421.31
2022-12-31T16:32:35.974Z,102429.09
2022-12-31T16:36:35.576Z,102430.84
2022-12-31T16:40:34.927Z,102438.88
2022-12-31T16:44:34.226Z,102445.78
2022-12-31T16:48:35.739Z,102439.19
2022-12-31T16:52:37.505Z,102442.75
2022-12-31T16:56:40.694Z,102446.19
2022-12-31T17:00:40.295Z,102459.31
2022-12-31T17:04:47.021Z,102454.97
2022-12-31T17:09:05.279Z,102461.19
2022-12-31T17:17:26.224Z,102475.75
2022-12-31T17:21:40.238Z,102473.22
2022-12-31T17:25:39.822Z,102473.31
2022-12-31T17:29:39.096Z,102483.56
2022-12-31T17:33:39.025Z,102471.75
2022-12-31T17:37:40.569Z,102481.75
2022-12-31T17:41:40.013Z,102479.19
2022-12-31T17:45:40.060Z,102484.41
2022-12-31T17:49:40.168Z,102490.38
2022-12-31T17:53:44.745Z,102486.91
2022-12-31T17:57:50.246Z,102485.53
2022-12-31T18:01:49.879Z,102487.13
2022-12-31T18:05:49.278Z,102491.25
2022-12-31T18:09:50.753Z,102485.63
2022-12-31T18:13:49.647Z,102490.00
2022-12-31T18:17:49.402Z,102494.50
2022-12-31T18:21:48.820Z,102493.44
2022-12-31T18:25:50.239Z,102497.16
2022-12-31T18:29:49.039Z,102492.88
2022-12-31T18:33:48.857Z,102489.03
2022-12-31T18:37:48.507Z,102479.28
2022-12-31T18:41:50.716Z,102482.13
2022-12-31T18:45:50.430Z,102467.13
2022-12-31T18:49:49.858Z,102472.69
2022-12-31T18:53:49.519Z,102471.47
2022-12-31T18:57:50.955Z,102474.28
2022-12-31T19:01:52.369Z,102468.63
2022-12-31T19:05:52.523Z,102461.09
2022-12-31T19:09:58.126Z,102459.19
2022-12-31T19:13:59.992Z,102461.13
2022-12-31T19:17:58.824Z,102465.38
2022-12-31T19:22:00.133Z,102473.66
2022-12-31T19:25:59.505Z,102473.53
2022-12-31T19:30:01.034Z,102473.34
2022-12-31T19:33:59.810Z,102477.38
2022-12-31T19:37:59.457Z,102469.88
2022-12-31T19:41:59.817Z,102476.84
2022-12-31T19:46:04.839Z,102474.25
2022-12-31T19:50:04.129Z,102476.06
2022-12-31T19:54:02.861Z,102479.47
2022-12-31T19:58:02.116Z,102462.56
2022-12-31T20:02:03.538Z,102469.13
2022-12-31T20:06:03.775Z,102473.09
2022-12-31T20:10:03.298Z,102475.84
2022-12-31T20:14:02.621Z,102474.16
2022-12-31T20:18:04.002Z,102475.41
2022-12-31T20:22:03.254Z,102471.53
2022-12-31T20:26:02.969Z,102461.97
2022-12-31T20:30:02.367Z,102467.50
2022-12-31T20:34:03.811Z,102463.44
2022-12-31T20:38:03.108Z,102469.41
2022-12-31T20:42:02.363Z,102453.72
2022-12-31T20:46:02.009Z,102471.38
2022-12-31T20:50:12.262Z,102470.00
2022-12-31T20:54:12.484Z,102474.16
2022-12-31T20:58:11.707Z,102475.28
2022-12-31T21:02:26.436Z,102489.81
2022-12-31T21:06:36.084Z,102497.41
2022-12-31T21:10:35.620Z,102503.78
2022-12-31T21:14:38.506Z,102504.91
2022-12-31T21:18:40.011Z,102504.09
2022-12-31T21:22:41.590Z,102503.53
2022-12-31T21:26:40.977Z,102503.38
2022-12-31T21:30:40.876Z,102507.25
2022-12-31T21:34:39.685Z,102521.13
2022-12-31T21:38:41.261Z,102519.00
2022-12-31T21:42:40.511Z,102524.38
2022-12-31T21:46:54.625Z,102526.31
2022-12-31T21:51:06.825Z,102517.91
2022-12-31T21:55:25.103Z,102529.16
2022-12-31T21:59:46.356Z,102534.19
2022-12-31T22:03:46.486Z,102528.34
2022-12-31T22:07:46.190Z,102524.75
2022-12-31T22:11:48.125Z,102520.34
2022-12-31T22:15:50.556Z,102514.16
2022-12-31T22:20:25.251Z,102504.59
2022-12-31T22:24:12.135Z,102500.91
2022-12-31T22:28:40.771Z,102486.00
2022-12-31T22:32:33.734Z,102484.66
2022-12-31T22:36:33.582Z,102487.00
2022-12-31T22:40:33.404Z,102495.38
2022-12-31T22:44:35.208Z,102501.84
2022-12-31T22:48:34.398Z,102505.59
2022-12-31T22:52:34.133Z,102508.94
2022-12-31T22:56:33.883Z,102508.94
2022-12-31T23:00:39.640Z,102500.38
2022-12-31T23:04:39.618Z,102508.28
2022-12-31T23:08:39.068Z,102509.81
2022-12-31T23:12:38.755Z,102508.50
2022-12-31T23:16:57.052Z,102512.88
2022-12-31T23:21:13.065Z,102507.38
2022-12-31T23:25:12.285Z,102505.94
2022-12-31T23:29:12.080Z,102504.03
2022-12-31T23:33:15.513Z,102505.22
2022-12-31T23:37:15.286Z,102512.47
2022-12-31T23:41:14.357Z,102515.78
2022-12-31T23:45:14.820Z,102522.91
2022-12-31T23:49:16.315Z,102517.53
2022-12-31T23:53:15.891Z,102517.78
2022-12-31T23:57:14.735Z,102520.38
